Barter Island LRRS Airport Barter Island Lrrs US
ICAO: PABA
IATA:
Category: Medium
Scheduled Services:

Elevation: 2 ft
TransAlt. 18000 ft.

Airport Communications:
AWOS 3:30.8
ANCHORAGE CNTR:120.6
CTAF:126.2
DEADHORSE RDO:122
RDO:126.2

PABA Zoom In..

If you have problems with the map follow the link
https://www.worldairports.se/pages/airport.php?
ICAO=PABA

Runways:

(A) RW 07 length 4818 ft width 100 ft
---- / hdg 66

(B) RW 25 length 4818 ft width 100 ft
---- / hdg 246

Location; PABA
Day. 22 / Time. 12.52 Zulu
* Altimeter: 29.65
* Temperature: -21° c. 5.8°f.
* Wind from: 000° Speed 00 kn.
Dewpoint: -23° c.
Visibility: 6 Statute Miles.
Clouds: Broken 3000 ft.
Clouds: Overcast 4000 ft.
Conditions: Light Snow.Conditions: Mist.

PABA 221252Z AUTO 00000KT 6SM -SN BR BKN030 OVC040 M21/M23 A2965 RMK AO2 SLP026 P0000 T12111233 FZRANO TSNO


Wind - Calm.

 
 
jpsmedia worldairports.se 2020   terms of use